sensor_id;sensor_type;location;lat;lon;timestamp;temperature;humidity
11666;DHT22;5889;51.350;6.708;2023-03-19T00:01:59;11.80;99.90
11666;DHT22;5889;51.350;6.708;2023-03-19T00:04:26;11.70;99.90
11666;DHT22;5889;51.350;6.708;2023-03-19T00:06:54;11.80;99.90
11666;DHT22;5889;51.350;6.708;2023-03-19T00:09:21;11.70;99.90
11666;DHT22;5889;51.350;6.708;2023-03-19T00:11:48;11.70;99.90
11666;DHT22;5889;51.350;6.708;2023-03-19T00:14:16;11.70;99.90
11666;DHT22;5889;51.350;6.708;2023-03-19T00:16:43;11.70;99.90
11666;DHT22;5889;51.350;6.708;2023-03-19T00:19:09;11.70;99.90
11666;DHT22;5889;51.350;6.708;2023-03-19T00:21:36;11.70;99.90
11666;DHT22;5889;51.350;6.708;2023-03-19T00:24:05;11.70;99.90
11666;DHT22;5889;51.350;6.708;2023-03-19T00:26:33;11.70;99.90
11666;DHT22;5889;51.350;6.708;2023-03-19T00:29:00;11.70;99.90
11666;DHT22;5889;51.350;6.708;2023-03-19T00:31:28;11.70;99.90
11666;DHT22;5889;51.350;6.708;2023-03-19T00:33:56;11.70;99.90
11666;DHT22;5889;51.350;6.708;2023-03-19T00:36:23;11.70;99.90
11666;DHT22;5889;51.350;6.708;2023-03-19T00:38:50;11.70;99.90
11666;DHT22;5889;51.350;6.708;2023-03-19T00:41:19;11.60;99.90
11666;DHT22;5889;51.350;6.708;2023-03-19T00:43:46;11.60;99.90
11666;DHT22;5889;51.350;6.708;2023-03-19T00:46:13;11.60;99.90
11666;DHT22;5889;51.350;6.708;2023-03-19T00:48:40;11.50;99.90
11666;DHT22;5889;51.350;6.708;2023-03-19T00:51:08;11.50;99.90
11666;DHT22;5889;51.350;6.708;2023-03-19T00:53:37;11.60;99.90
11666;DHT22;5889;51.350;6.708;2023-03-19T00:56:04;11.50;99.90
11666;DHT22;5889;51.350;6.708;2023-03-19T00:58:33;11.50;99.90
11666;DHT22;5889;51.350;6.708;2023-03-19T01:01:03;11.50;99.90
11666;DHT22;5889;51.350;6.708;2023-03-19T01:03:30;11.40;99.90
11666;DHT22;5889;51.350;6.708;2023-03-19T01:05:57;11.50;99.90
11666;DHT22;5889;51.350;6.708;2023-03-19T01:08:24;11.40;99.90
11666;DHT22;5889;51.350;6.708;2023-03-19T01:10:50;11.30;99.90
11666;DHT22;5889;51.350;6.708;2023-03-19T01:13:17;11.30;99.90
11666;DHT22;5889;51.350;6.708;2023-03-19T01:15:45;11.30;99.90
11666;DHT22;5889;51.350;6.708;2023-03-19T01:18:12;11.30;99.90
11666;DHT22;5889;51.350;6.708;2023-03-19T01:20:40;11.30;99.90
11666;DHT22;5889;51.350;6.708;2023-03-19T01:23:07;11.30;99.90
11666;DHT22;5889;51.350;6.708;2023-03-19T01:25:34;11.20;99.90
11666;DHT22;5889;51.350;6.708;2023-03-19T01:28:01;11.20;99.90
11666;DHT22;5889;51.350;6.708;2023-03-19T01:30:28;11.20;99.90
11666;DHT22;5889;51.350;6.708;2023-03-19T01:32:56;11.20;99.90
11666;DHT22;5889;51.350;6.708;2023-03-19T01:35:23;11.10;99.90
11666;DHT22;5889;51.350;6.708;2023-03-19T01:37:50;11.20;99.90
11666;DHT22;5889;51.350;6.708;2023-03-19T01:40:16;11.10;99.90
11666;DHT22;5889;51.350;6.708;2023-03-19T01:42:54;11.10;99.90
11666;DHT22;5889;51.350;6.708;2023-03-19T01:45:33;11.10;99.90
11666;DHT22;5889;51.350;6.708;2023-03-19T01:48:01;11.10;99.90
11666;DHT22;5889;51.350;6.708;2023-03-19T01:50:33;11.10;99.90
11666;DHT22;5889;51.350;6.708;2023-03-19T01:53:04;11.10;99.90
11666;DHT22;5889;51.350;6.708;2023-03-19T01:55:31;11.10;99.90
11666;DHT22;5889;51.350;6.708;2023-03-19T01:57:58;11.10;99.90
11666;DHT22;5889;51.350;6.708;2023-03-19T02:00:26;11.10;99.90
11666;DHT22;5889;51.350;6.708;2023-03-19T02:02:57;11.10;99.90
11666;DHT22;5889;51.350;6.708;2023-03-19T02:05:27;11.10;99.90
11666;DHT22;5889;51.350;6.708;2023-03-19T02:07:57;11.10;99.90
11666;DHT22;5889;51.350;6.708;2023-03-19T02:10:24;11.10;99.90
11666;DHT22;5889;51.350;6.708;2023-03-19T02:12:52;11.10;99.90
11666;DHT22;5889;51.350;6.708;2023-03-19T02:15:19;11.10;99.90
11666;DHT22;5889;51.350;6.708;2023-03-19T02:17:46;11.10;99.90
11666;DHT22;5889;51.350;6.708;2023-03-19T02:20:17;11.00;99.90
11666;DHT22;5889;51.350;6.708;2023-03-19T02:23:10;11.10;99.90
11666;DHT22;5889;51.350;6.708;2023-03-19T02:25:49;11.10;99.90
11666;DHT22;5889;51.350;6.708;2023-03-19T02:28:18;11.00;99.90
11666;DHT22;5889;51.350;6.708;2023-03-19T02:30:46;11.00;99.90
11666;DHT22;5889;51.350;6.708;2023-03-19T02:33:16;11.00;99.90
11666;DHT22;5889;51.350;6.708;2023-03-19T02:35:44;11.00;99.90
11666;DHT22;5889;51.350;6.708;2023-03-19T02:38:13;11.00;99.90
11666;DHT22;5889;51.350;6.708;2023-03-19T02:40:44;10.90;99.90
11666;DHT22;5889;51.350;6.708;2023-03-19T02:43:15;10.90;99.90
11666;DHT22;5889;51.350;6.708;2023-03-19T02:45:41;10.90;99.90
11666;DHT22;5889;51.350;6.708;2023-03-19T02:48:08;10.90;99.90
11666;DHT22;5889;51.350;6.708;2023-03-19T02:50:35;10.90;99.90
11666;DHT22;5889;51.350;6.708;2023-03-19T02:53:02;10.90;99.90
11666;DHT22;5889;51.350;6.708;2023-03-19T02:55:29;10.90;99.90
11666;DHT22;5889;51.350;6.708;2023-03-19T02:57:55;10.90;99.90
11666;DHT22;5889;51.350;6.708;2023-03-19T03:00:23;10.90;99.90
11666;DHT22;5889;51.350;6.708;2023-03-19T03:02:50;10.90;99.90
11666;DHT22;5889;51.350;6.708;2023-03-19T03:05:17;10.90;99.90
11666;DHT22;5889;51.350;6.708;2023-03-19T03:07:45;11.00;99.90
11666;DHT22;5889;51.350;6.708;2023-03-19T03:10:12;10.90;99.90
11666;DHT22;5889;51.350;6.708;2023-03-19T03:12:39;11.00;99.90
11666;DHT22;5889;51.350;6.708;2023-03-19T03:15:07;10.90;99.90
11666;DHT22;5889;51.350;6.708;2023-03-19T03:17:37;11.00;99.90
11666;DHT22;5889;51.350;6.708;2023-03-19T03:20:05;11.00;99.90
11666;DHT22;5889;51.350;6.708;2023-03-19T03:22:32;11.00;99.90
11666;DHT22;5889;51.350;6.708;2023-03-19T03:24:59;11.00;99.90
11666;DHT22;5889;51.350;6.708;2023-03-19T03:27:25;11.00;99.90
11666;DHT22;5889;51.350;6.708;2023-03-19T03:29:52;11.00;99.90
11666;DHT22;5889;51.350;6.708;2023-03-19T03:32:19;11.00;99.90
11666;DHT22;5889;51.350;6.708;2023-03-19T03:34:47;11.10;99.90
11666;DHT22;5889;51.350;6.708;2023-03-19T03:37:15;11.00;99.90
11666;DHT22;5889;51.350;6.708;2023-03-19T03:39:41;11.00;99.90
11666;DHT22;5889;51.350;6.708;2023-03-19T03:42:08;11.00;99.90
11666;DHT22;5889;51.350;6.708;2023-03-19T03:44:35;11.00;99.90
11666;DHT22;5889;51.350;6.708;2023-03-19T03:47:02;11.00;99.90
11666;DHT22;5889;51.350;6.708;2023-03-19T03:49:29;11.00;99.90
11666;DHT22;5889;51.350;6.708;2023-03-19T03:51:57;11.00;99.90
11666;DHT22;5889;51.350;6.708;2023-03-19T03:54:24;11.00;99.90
11666;DHT22;5889;51.350;6.708;2023-03-19T03:56:51;11.00;99.90
11666;DHT22;5889;51.350;6.708;2023-03-19T03:59:17;11.00;99.90
11666;DHT22;5889;51.350;6.708;2023-03-19T04:01:44;11.00;99.90
11666;DHT22;5889;51.350;6.708;2023-03-19T04:04:11;11.00;99.90
11666;DHT22;5889;51.350;6.708;2023-03-19T04:06:38;11.00;99.90
11666;DHT22;5889;51.350;6.708;2023-03-19T04:09:06;11.10;99.90
11666;DHT22;5889;51.350;6.708;2023-03-19T04:11:33;11.10;99.90
11666;DHT22;5889;51.350;6.708;2023-03-19T04:14:00;11.10;99.90
11666;DHT22;5889;51.350;6.708;2023-03-19T04:16:29;11.10;99.90
11666;DHT22;5889;51.350;6.708;2023-03-19T04:18:55;11.20;99.90
11666;DHT22;5889;51.350;6.708;2023-03-19T04:21:22;11.20;99.90
11666;DHT22;5889;51.350;6.708;2023-03-19T04:23:49;11.20;99.90
11666;DHT22;5889;51.350;6.708;2023-03-19T04:26:17;11.20;99.90
11666;DHT22;5889;51.350;6.708;2023-03-19T04:28:44;11.20;99.90
11666;DHT22;5889;51.350;6.708;2023-03-19T04:31:10;11.20;99.90
11666;DHT22;5889;51.350;6.708;2023-03-19T04:33:37;11.20;99.90
11666;DHT22;5889;51.350;6.708;2023-03-19T04:36:05;11.20;99.90
11666;DHT22;5889;51.350;6.708;2023-03-19T04:38:32;11.20;99.90
11666;DHT22;5889;51.350;6.708;2023-03-19T04:41:00;11.30;99.90
11666;DHT22;5889;51.350;6.708;2023-03-19T04:43:28;11.30;99.90
11666;DHT22;5889;51.350;6.708;2023-03-19T04:45:55;11.30;99.90
11666;DHT22;5889;51.350;6.708;2023-03-19T04:48:21;11.20;99.90
11666;DHT22;5889;51.350;6.708;2023-03-19T04:50:48;11.30;99.90
11666;DHT22;5889;51.350;6.708;2023-03-19T04:53:17;11.30;99.90
11666;DHT22;5889;51.350;6.708;2023-03-19T04:55:45;11.30;99.90
11666;DHT22;5889;51.350;6.708;2023-03-19T04:58:12;11.30;99.90
11666;DHT22;5889;51.350;6.708;2023-03-19T05:00:41;11.30;99.90
11666;DHT22;5889;51.350;6.708;2023-03-19T05:03:09;11.30;99.90
11666;DHT22;5889;51.350;6.708;2023-03-19T05:05:36;11.30;99.90
11666;DHT22;5889;51.350;6.708;2023-03-19T05:08:03;11.30;99.90
11666;DHT22;5889;51.350;6.708;2023-03-19T05:10:30;11.20;99.90
11666;DHT22;5889;51.350;6.708;2023-03-19T05:12:57;11.20;99.90
11666;DHT22;5889;51.350;6.708;2023-03-19T05:15:24;11.20;99.90
11666;DHT22;5889;51.350;6.708;2023-03-19T05:17:52;11.30;99.90
11666;DHT22;5889;51.350;6.708;2023-03-19T05:20:19;11.20;99.90
11666;DHT22;5889;51.350;6.708;2023-03-19T05:22:46;11.20;99.90
11666;DHT22;5889;51.350;6.708;2023-03-19T05:25:12;11.20;99.90
11666;DHT22;5889;51.350;6.708;2023-03-19T05:27:40;11.20;99.90
11666;DHT22;5889;51.350;6.708;2023-03-19T05:30:08;11.20;99.90
11666;DHT22;5889;51.350;6.708;2023-03-19T05:32:35;11.20;99.90
11666;DHT22;5889;51.350;6.708;2023-03-19T05:35:04;11.20;99.90
11666;DHT22;5889;51.350;6.708;2023-03-19T05:37:31;11.20;99.90
11666;DHT22;5889;51.350;6.708;2023-03-19T05:39:58;11.20;99.90
11666;DHT22;5889;51.350;6.708;2023-03-19T05:42:25;11.20;99.90
11666;DHT22;5889;51.350;6.708;2023-03-19T05:44:52;11.20;99.90
11666;DHT22;5889;51.350;6.708;2023-03-19T05:47:19;11.20;99.90
11666;DHT22;5889;51.350;6.708;2023-03-19T05:49:46;11.20;99.90
11666;DHT22;5889;51.350;6.708;2023-03-19T05:52:14;11.20;99.90
11666;DHT22;5889;51.350;6.708;2023-03-19T05:54:41;11.10;99.90
11666;DHT22;5889;51.350;6.708;2023-03-19T05:57:07;11.20;99.90
11666;DHT22;5889;51.350;6.708;2023-03-19T05:59:34;11.20;99.90
11666;DHT22;5889;51.350;6.708;2023-03-19T06:02:01;11.20;99.90
11666;DHT22;5889;51.350;6.708;2023-03-19T06:04:28;11.20;99.90
11666;DHT22;5889;51.350;6.708;2023-03-19T06:06:55;11.20;99.90
11666;DHT22;5889;51.350;6.708;2023-03-19T06:09:23;11.20;99.90
11666;DHT22;5889;51.350;6.708;2023-03-19T06:11:50;11.20;99.90
11666;DHT22;5889;51.350;6.708;2023-03-19T06:14:17;11.20;99.90
11666;DHT22;5889;51.350;6.708;2023-03-19T06:16:43;11.20;99.90
11666;DHT22;5889;51.350;6.708;2023-03-19T06:19:10;11.30;99.90
11666;DHT22;5889;51.350;6.708;2023-03-19T06:21:37;11.40;99.90
11666;DHT22;5889;51.350;6.708;2023-03-19T06:24:04;11.30;99.90
11666;DHT22;5889;51.350;6.708;2023-03-19T06:26:33;11.30;99.90
11666;DHT22;5889;51.350;6.708;2023-03-19T06:29:00;11.30;99.90
11666;DHT22;5889;51.350;6.708;2023-03-19T06:31:27;11.30;99.90
11666;DHT22;5889;51.350;6.708;2023-03-19T06:33:54;11.40;99.90
11666;DHT22;5889;51.350;6.708;2023-03-19T06:36:21;11.40;99.90
11666;DHT22;5889;51.350;6.708;2023-03-19T06:38:48;11.40;99.90
11666;DHT22;5889;51.350;6.708;2023-03-19T06:41:15;11.40;99.90
11666;DHT22;5889;51.350;6.708;2023-03-19T06:43:43;11.40;99.90
11666;DHT22;5889;51.350;6.708;2023-03-19T06:46:10;11.40;99.90
11666;DHT22;5889;51.350;6.708;2023-03-19T06:48:37;11.40;99.90
11666;DHT22;5889;51.350;6.708;2023-03-19T06:51:04;11.40;99.90
11666;DHT22;5889;51.350;6.708;2023-03-19T06:53:31;11.40;99.90
11666;DHT22;5889;51.350;6.708;2023-03-19T06:55:58;11.40;99.90
11666;DHT22;5889;51.350;6.708;2023-03-19T06:58:25;11.40;99.90
11666;DHT22;5889;51.350;6.708;2023-03-19T07:00:53;11.50;99.90
11666;DHT22;5889;51.350;6.708;2023-03-19T07:03:21;11.50;99.90
11666;DHT22;5889;51.350;6.708;2023-03-19T07:05:49;11.50;99.90
11666;DHT22;5889;51.350;6.708;2023-03-19T07:08:16;11.50;99.90
11666;DHT22;5889;51.350;6.708;2023-03-19T07:10:43;11.50;99.90
11666;DHT22;5889;51.350;6.708;2023-03-19T07:13:09;11.50;99.90
11666;DHT22;5889;51.350;6.708;2023-03-19T07:15:36;11.50;99.90
11666;DHT22;5889;51.350;6.708;2023-03-19T07:18:04;11.60;99.90
11666;DHT22;5889;51.350;6.708;2023-03-19T07:20:31;11.60;99.90
11666;DHT22;5889;51.350;6.708;2023-03-19T07:22:58;11.70;99.90
11666;DHT22;5889;51.350;6.708;2023-03-19T07:25:25;11.80;99.90
11666;DHT22;5889;51.350;6.708;2023-03-19T07:27:51;11.90;99.90
11666;DHT22;5889;51.350;6.708;2023-03-19T07:30:18;12.00;99.90
11666;DHT22;5889;51.350;6.708;2023-03-19T07:32:45;12.00;99.90
11666;DHT22;5889;51.350;6.708;2023-03-19T07:35:14;12.10;99.90
11666;DHT22;5889;51.350;6.708;2023-03-19T07:37:41;12.20;99.90
11666;DHT22;5889;51.350;6.708;2023-03-19T07:40:09;12.20;99.90
11666;DHT22;5889;51.350;6.708;2023-03-19T07:42:36;12.30;99.90
11666;DHT22;5889;51.350;6.708;2023-03-19T07:45:03;12.30;99.90
11666;DHT22;5889;51.350;6.708;2023-03-19T07:47:30;12.30;99.90
11666;DHT22;5889;51.350;6.708;2023-03-19T07:49:57;12.30;99.90
11666;DHT22;5889;51.350;6.708;2023-03-19T07:52:26;12.30;99.90
11666;DHT22;5889;51.350;6.708;2023-03-19T07:54:53;12.30;99.90
11666;DHT22;5889;51.350;6.708;2023-03-19T07:57:20;12.30;99.90
11666;DHT22;5889;51.350;6.708;2023-03-19T07:59:47;12.40;99.90
11666;DHT22;5889;51.350;6.708;2023-03-19T08:02:14;12.50;99.90
11666;DHT22;5889;51.350;6.708;2023-03-19T08:04:40;12.50;99.90
11666;DHT22;5889;51.350;6.708;2023-03-19T08:07:07;12.50;99.90
11666;DHT22;5889;51.350;6.708;2023-03-19T08:09:39;12.60;99.90
11666;DHT22;5889;51.350;6.708;2023-03-19T08:12:06;12.60;99.90
11666;DHT22;5889;51.350;6.708;2023-03-19T08:14:33;12.60;99.90
11666;DHT22;5889;51.350;6.708;2023-03-19T08:17:00;12.70;99.90
11666;DHT22;5889;51.350;6.708;2023-03-19T08:19:27;12.70;99.90
11666;DHT22;5889;51.350;6.708;2023-03-19T08:21:54;12.80;99.90
11666;DHT22;5889;51.350;6.708;2023-03-19T08:24:21;12.80;99.90
11666;DHT22;5889;51.350;6.708;2023-03-19T08:26:49;12.90;99.90
11666;DHT22;5889;51.350;6.708;2023-03-19T08:29:16;12.90;99.90
11666;DHT22;5889;51.350;6.708;2023-03-19T08:31:42;13.00;99.90
11666;DHT22;5889;51.350;6.708;2023-03-19T08:34:09;13.10;99.90
11666;DHT22;5889;51.350;6.708;2023-03-19T08:36:36;13.20;99.90
11666;DHT22;5889;51.350;6.708;2023-03-19T08:39:03;13.30;99.90
11666;DHT22;5889;51.350;6.708;2023-03-19T08:41:30;13.40;99.90
11666;DHT22;5889;51.350;6.708;2023-03-19T08:43:58;13.50;99.90
11666;DHT22;5889;51.350;6.708;2023-03-19T08:46:25;13.70;99.90
11666;DHT22;5889;51.350;6.708;2023-03-19T08:48:53;13.70;99.90
11666;DHT22;5889;51.350;6.708;2023-03-19T08:51:20;13.70;99.90
11666;DHT22;5889;51.350;6.708;2023-03-19T08:53:49;13.80;99.90
11666;DHT22;5889;51.350;6.708;2023-03-19T08:56:16;13.90;99.90
11666;DHT22;5889;51.350;6.708;2023-03-19T08:58:42;14.00;99.90
11666;DHT22;5889;51.350;6.708;2023-03-19T09:01:12;14.00;99.90
11666;DHT22;5889;51.350;6.708;2023-03-19T09:03:41;14.10;99.90
11666;DHT22;5889;51.350;6.708;2023-03-19T09:06:09;14.20;99.90
11666;DHT22;5889;51.350;6.708;2023-03-19T09:08:36;14.20;99.90
11666;DHT22;5889;51.350;6.708;2023-03-19T09:11:04;14.30;99.90
11666;DHT22;5889;51.350;6.708;2023-03-19T09:13:31;14.30;99.90
11666;DHT22;5889;51.350;6.708;2023-03-19T09:15:58;14.20;99.90
11666;DHT22;5889;51.350;6.708;2023-03-19T09:18:26;14.20;99.90
11666;DHT22;5889;51.350;6.708;2023-03-19T09:20:53;14.10;99.90
11666;DHT22;5889;51.350;6.708;2023-03-19T09:23:20;14.10;99.90
11666;DHT22;5889;51.350;6.708;2023-03-19T09:25:47;14.10;99.90
11666;DHT22;5889;51.350;6.708;2023-03-19T09:28:14;14.10;99.90
11666;DHT22;5889;51.350;6.708;2023-03-19T09:30:41;14.10;99.90
11666;DHT22;5889;51.350;6.708;2023-03-19T09:33:10;14.20;99.90
11666;DHT22;5889;51.350;6.708;2023-03-19T09:35:38;14.20;99.90
11666;DHT22;5889;51.350;6.708;2023-03-19T09:38:05;14.10;99.90
11666;DHT22;5889;51.350;6.708;2023-03-19T09:40:35;14.10;99.90
11666;DHT22;5889;51.350;6.708;2023-03-19T09:43:16;14.10;99.90
11666;DHT22;5889;51.350;6.708;2023-03-19T09:45:46;14.00;99.90
11666;DHT22;5889;51.350;6.708;2023-03-19T09:48:17;13.90;99.90
11666;DHT22;5889;51.350;6.708;2023-03-19T09:50:47;13.80;99.90
11666;DHT22;5889;51.350;6.708;2023-03-19T09:53:22;13.80;99.90
11666;DHT22;5889;51.350;6.708;2023-03-19T09:55:51;13.80;99.90
11666;DHT22;5889;51.350;6.708;2023-03-19T09:58:21;13.80;99.90
11666;DHT22;5889;51.350;6.708;2023-03-19T10:00:49;13.90;99.90
11666;DHT22;5889;51.350;6.708;2023-03-19T10:03:31;13.90;99.90
11666;DHT22;5889;51.350;6.708;2023-03-19T10:06:12;13.90;99.90
11666;DHT22;5889;51.350;6.708;2023-03-19T10:08:50;14.00;99.90
11666;DHT22;5889;51.350;6.708;2023-03-19T10:11:42;14.00;99.90
11666;DHT22;5889;51.350;6.708;2023-03-19T10:14:30;14.00;99.90
11666;DHT22;5889;51.350;6.708;2023-03-19T10:17:02;13.90;99.90
11666;DHT22;5889;51.350;6.708;2023-03-19T10:19:37;13.80;99.90
11666;DHT22;5889;51.350;6.708;2023-03-19T10:22:10;13.80;99.90
11666;DHT22;5889;51.350;6.708;2023-03-19T10:24:41;13.80;99.90
11666;DHT22;5889;51.350;6.708;2023-03-19T10:27:12;13.90;99.90
11666;DHT22;5889;51.350;6.708;2023-03-19T10:29:40;13.90;99.90
11666;DHT22;5889;51.350;6.708;2023-03-19T10:32:14;14.00;99.90
11666;DHT22;5889;51.350;6.708;2023-03-19T10:34:44;14.00;99.90
11666;DHT22;5889;51.350;6.708;2023-03-19T10:37:17;14.00;99.90
11666;DHT22;5889;51.350;6.708;2023-03-19T10:39:46;14.10;99.90
11666;DHT22;5889;51.350;6.708;2023-03-19T10:45:04;14.30;99.90
11666;DHT22;5889;51.350;6.708;2023-03-19T10:47:37;14.40;99.90
11666;DHT22;5889;51.350;6.708;2023-03-19T10:50:06;14.40;99.90
11666;DHT22;5889;51.350;6.708;2023-03-19T10:52:36;14.40;99.90
11666;DHT22;5889;51.350;6.708;2023-03-19T10:55:11;14.40;99.90
11666;DHT22;5889;51.350;6.708;2023-03-19T10:57:40;14.40;99.90
11666;DHT22;5889;51.350;6.708;2023-03-19T11:00:15;14.40;99.90
11666;DHT22;5889;51.350;6.708;2023-03-19T11:02:47;14.50;99.90
11666;DHT22;5889;51.350;6.708;2023-03-19T11:05:25;14.60;99.90
11666;DHT22;5889;51.350;6.708;2023-03-19T11:07:57;14.70;99.90
11666;DHT22;5889;51.350;6.708;2023-03-19T11:10:26;14.90;99.90
11666;DHT22;5889;51.350;6.708;2023-03-19T11:12:55;14.90;99.90
11666;DHT22;5889;51.350;6.708;2023-03-19T11:15:56;15.00;99.90
11666;DHT22;5889;51.350;6.708;2023-03-19T11:18:47;15.00;99.90
11666;DHT22;5889;51.350;6.708;2023-03-19T11:21:22;15.00;99.90
11666;DHT22;5889;51.350;6.708;2023-03-19T11:24:00;15.10;99.90
11666;DHT22;5889;51.350;6.708;2023-03-19T11:26:27;15.10;99.90
11666;DHT22;5889;51.350;6.708;2023-03-19T11:29:00;15.10;99.90
11666;DHT22;5889;51.350;6.708;2023-03-19T11:31:32;15.30;99.90
11666;DHT22;5889;51.350;6.708;2023-03-19T11:34:12;15.40;99.90
11666;DHT22;5889;51.350;6.708;2023-03-19T11:36:45;15.50;99.90
11666;DHT22;5889;51.350;6.708;2023-03-19T11:39:26;15.60;99.90
11666;DHT22;5889;51.350;6.708;2023-03-19T11:42:10;15.60;99.90
11666;DHT22;5889;51.350;6.708;2023-03-19T11:44:54;15.70;99.90
11666;DHT22;5889;51.350;6.708;2023-03-19T11:47:29;15.70;99.90
11666;DHT22;5889;51.350;6.708;2023-03-19T11:50:06;15.60;99.90
11666;DHT22;5889;51.350;6.708;2023-03-19T11:53:01;15.60;99.90
11666;DHT22;5889;51.350;6.708;2023-03-19T11:55:35;15.60;99.90
11666;DHT22;5889;51.350;6.708;2023-03-19T11:58:25;15.40;99.90
11666;DHT22;5889;51.350;6.708;2023-03-19T12:00:56;15.30;99.90
11666;DHT22;5889;51.350;6.708;2023-03-19T12:03:51;15.20;99.90
11666;DHT22;5889;51.350;6.708;2023-03-19T12:06:30;15.30;99.90
11666;DHT22;5889;51.350;6.708;2023-03-19T12:09:03;15.20;99.90
11666;DHT22;5889;51.350;6.708;2023-03-19T12:11:42;15.30;99.90
11666;DHT22;5889;51.350;6.708;2023-03-19T12:14:19;15.30;99.90
11666;DHT22;5889;51.350;6.708;2023-03-19T12:17:02;15.40;99.90
11666;DHT22;5889;51.350;6.708;2023-03-19T12:22:37;15.50;99.90
11666;DHT22;5889;51.350;6.708;2023-03-19T12:25:23;15.50;99.90
11666;DHT22;5889;51.350;6.708;2023-03-19T12:27:59;15.70;99.90
11666;DHT22;5889;51.350;6.708;2023-03-19T12:30:33;15.80;99.90
11666;DHT22;5889;51.350;6.708;2023-03-19T12:33:15;15.80;99.90
11666;DHT22;5889;51.350;6.708;2023-03-19T12:35:48;16.00;99.90
11666;DHT22;5889;51.350;6.708;2023-03-19T12:38:19;16.00;99.90
11666;DHT22;5889;51.350;6.708;2023-03-19T12:40:52;16.10;99.90
11666;DHT22;5889;51.350;6.708;2023-03-19T12:43:27;16.20;99.90
11666;DHT22;5889;51.350;6.708;2023-03-19T12:45:58;16.10;99.90
11666;DHT22;5889;51.350;6.708;2023-03-19T12:48:29;16.20;99.90
11666;DHT22;5889;51.350;6.708;2023-03-19T12:51:01;16.30;99.90
11666;DHT22;5889;51.350;6.708;2023-03-19T12:53:34;16.50;99.90
11666;DHT22;5889;51.350;6.708;2023-03-19T12:56:08;16.80;99.90
11666;DHT22;5889;51.350;6.708;2023-03-19T12:58:47;17.10;99.90
11666;DHT22;5889;51.350;6.708;2023-03-19T13:01:20;17.20;99.90
11666;DHT22;5889;51.350;6.708;2023-03-19T13:03:54;17.10;99.90
11666;DHT22;5889;51.350;6.708;2023-03-19T13:06:25;17.10;99.90
11666;DHT22;5889;51.350;6.708;2023-03-19T13:08:57;17.10;99.90
11666;DHT22;5889;51.350;6.708;2023-03-19T13:11:34;17.30;99.90
11666;DHT22;5889;51.350;6.708;2023-03-19T13:14:07;17.30;99.90
11666;DHT22;5889;51.350;6.708;2023-03-19T13:16:41;17.20;99.90
11666;DHT22;5889;51.350;6.708;2023-03-19T13:19:15;17.10;99.90
11666;DHT22;5889;51.350;6.708;2023-03-19T13:21:45;17.00;99.90
11666;DHT22;5889;51.350;6.708;2023-03-19T13:24:19;16.90;99.90
11666;DHT22;5889;51.350;6.708;2023-03-19T13:26:47;16.90;99.90
11666;DHT22;5889;51.350;6.708;2023-03-19T13:29:19;17.00;99.90
11666;DHT22;5889;51.350;6.708;2023-03-19T13:31:47;17.00;99.90
11666;DHT22;5889;51.350;6.708;2023-03-19T13:34:25;17.00;99.90
11666;DHT22;5889;51.350;6.708;2023-03-19T13:36:58;17.10;99.90
11666;DHT22;5889;51.350;6.708;2023-03-19T13:39:28;17.10;99.90
11666;DHT22;5889;51.350;6.708;2023-03-19T13:42:07;17.00;99.90
11666;DHT22;5889;51.350;6.708;2023-03-19T13:44:41;16.90;99.90
11666;DHT22;5889;51.350;6.708;2023-03-19T13:47:37;16.80;99.90
11666;DHT22;5889;51.350;6.708;2023-03-19T13:50:22;16.70;99.90
11666;DHT22;5889;51.350;6.708;2023-03-19T13:52:51;16.60;99.90
11666;DHT22;5889;51.350;6.708;2023-03-19T13:55:45;16.50;99.90
11666;DHT22;5889;51.350;6.708;2023-03-19T13:58:18;16.50;99.90
11666;DHT22;5889;51.350;6.708;2023-03-19T14:01:05;16.40;99.90
11666;DHT22;5889;51.350;6.708;2023-03-19T14:03:33;16.30;99.90
11666;DHT22;5889;51.350;6.708;2023-03-19T14:06:01;16.20;99.90
11666;DHT22;5889;51.350;6.708;2023-03-19T14:08:32;16.30;99.90
11666;DHT22;5889;51.350;6.708;2023-03-19T14:11:07;16.30;99.90
11666;DHT22;5889;51.350;6.708;2023-03-19T14:13:38;16.20;99.90
11666;DHT22;5889;51.350;6.708;2023-03-19T14:16:14;16.20;99.90
11666;DHT22;5889;51.350;6.708;2023-03-19T14:18:42;16.20;99.90
11666;DHT22;5889;51.350;6.708;2023-03-19T14:21:12;16.10;99.90
11666;DHT22;5889;51.350;6.708;2023-03-19T14:23:41;16.10;99.90
11666;DHT22;5889;51.350;6.708;2023-03-19T14:26:18;16.10;99.90
11666;DHT22;5889;51.350;6.708;2023-03-19T14:28:52;16.00;99.90
11666;DHT22;5889;51.350;6.708;2023-03-19T14:31:28;16.00;99.90
11666;DHT22;5889;51.350;6.708;2023-03-19T14:34:01;15.90;99.90
11666;DHT22;5889;51.350;6.708;2023-03-19T14:36:29;15.90;99.90
11666;DHT22;5889;51.350;6.708;2023-03-19T14:38:58;15.90;99.90
11666;DHT22;5889;51.350;6.708;2023-03-19T14:41:27;15.80;99.90
11666;DHT22;5889;51.350;6.708;2023-03-19T14:47:15;15.90;99.90
11666;DHT22;5889;51.350;6.708;2023-03-19T14:52:48;15.90;99.90
11666;DHT22;5889;51.350;6.708;2023-03-19T14:55:16;15.90;99.90
11666;DHT22;5889;51.350;6.708;2023-03-19T14:57:43;16.00;99.90
11666;DHT22;5889;51.350;6.708;2023-03-19T15:00:13;16.00;99.90
11666;DHT22;5889;51.350;6.708;2023-03-19T15:02:45;16.00;99.90
11666;DHT22;5889;51.350;6.708;2023-03-19T15:05:17;16.10;99.90
11666;DHT22;5889;51.350;6.708;2023-03-19T15:07:48;16.10;99.90
11666;DHT22;5889;51.350;6.708;2023-03-19T15:10:17;16.10;99.90
11666;DHT22;5889;51.350;6.708;2023-03-19T15:13:00;16.10;99.90
11666;DHT22;5889;51.350;6.708;2023-03-19T15:18:31;16.10;99.90
11666;DHT22;5889;51.350;6.708;2023-03-19T15:20:58;16.20;99.90
11666;DHT22;5889;51.350;6.708;2023-03-19T15:23:26;16.30;99.90
11666;DHT22;5889;51.350;6.708;2023-03-19T15:25:55;16.30;99.90
11666;DHT22;5889;51.350;6.708;2023-03-19T15:28:23;16.30;99.90
11666;DHT22;5889;51.350;6.708;2023-03-19T15:30:55;16.30;99.90
11666;DHT22;5889;51.350;6.708;2023-03-19T15:33:24;16.20;99.90
11666;DHT22;5889;51.350;6.708;2023-03-19T15:36:00;16.10;99.90
11666;DHT22;5889;51.350;6.708;2023-03-19T15:38:34;16.00;99.90
11666;DHT22;5889;51.350;6.708;2023-03-19T15:41:02;15.90;99.90
11666;DHT22;5889;51.350;6.708;2023-03-19T15:43:30;15.80;99.90
11666;DHT22;5889;51.350;6.708;2023-03-19T15:45:58;15.70;99.90
11666;DHT22;5889;51.350;6.708;2023-03-19T15:48:31;15.70;99.90
11666;DHT22;5889;51.350;6.708;2023-03-19T15:51:01;15.70;99.90
11666;DHT22;5889;51.350;6.708;2023-03-19T15:53:31;15.70;99.90
11666;DHT22;5889;51.350;6.708;2023-03-19T15:56:01;15.70;99.90
11666;DHT22;5889;51.350;6.708;2023-03-19T16:01:42;15.60;99.90
11666;DHT22;5889;51.350;6.708;2023-03-19T16:04:15;15.50;99.90
11666;DHT22;5889;51.350;6.708;2023-03-19T16:06:46;15.40;99.90
11666;DHT22;5889;51.350;6.708;2023-03-19T16:09:22;15.40;99.90
11666;DHT22;5889;51.350;6.708;2023-03-19T16:11:50;15.30;99.90
11666;DHT22;5889;51.350;6.708;2023-03-19T16:14:22;15.30;99.90
11666;DHT22;5889;51.350;6.708;2023-03-19T16:16:50;15.20;99.90
11666;DHT22;5889;51.350;6.708;2023-03-19T16:19:30;15.20;99.90
11666;DHT22;5889;51.350;6.708;2023-03-19T16:21:59;15.20;99.90